Time;durP1;ratioP1;P1;durP2;ratioP2;P2;SDS_P1;SDS_P2;PMS_P1;PMS_P2;Temp;Humidity;BMP_temperature;BMP_pressure;BME280_temperature;BME280_humidity;BME280_pressure;Samples;Min_cycle;Max_cycle;Signal;HPM_P1;HPM_P2
2022/04/08 00:24:53;;;;;;;;;;;8.80;99.90;;;;;;5044820;28;19975;-79
2022/04/08 00:27:20;;;;;;;;;;;8.80;99.90;;;;;;5043540;28;19929;-79
2022/04/08 00:29:47;;;;;;;;;;;8.80;99.90;;;;;;5022095;28;20000;-79
2022/04/08 00:32:14;;;;;;;;;;;8.80;99.90;;;;;;5043375;28;19932;-80
2022/04/08 00:34:42;;;;;;;;;;;8.80;99.90;;;;;;5045118;28;19929;-80
2022/04/08 00:37:09;;;;;;;;;;;8.80;99.90;;;;;;5034741;28;19925;-80
2022/04/08 00:39:36;;;;;;;;;;;8.70;99.90;;;;;;5023074;28;20423;-80
2022/04/08 00:42:03;;;;;;;;;;;8.70;99.90;;;;;;5042785;28;20019;-79
2022/04/08 00:44:33;;;;;;;;;;;8.70;99.90;;;;;;5038565;28;19929;-82
2022/04/08 00:47:00;;;;;;;;;;;8.70;99.90;;;;;;5035859;28;19940;-82
2022/04/08 00:49:27;;;;;;;;;;;8.70;99.90;;;;;;5037582;28;19935;-82
2022/04/08 00:51:55;;;;;;;;;;;8.70;99.90;;;;;;5043592;28;19924;-81
2022/04/08 00:54:22;;;;;;;;;;;8.70;99.90;;;;;;5040644;28;19929;-82
2022/04/08 00:56:50;;;;;;;;;;;8.70;99.90;;;;;;5042976;28;20007;-82
2022/04/08 00:59:17;;;;;;;;;;;8.60;99.90;;;;;;5043353;28;21996;-82
2022/04/08 01:01:43;;;;;;;;;;;8.60;99.90;;;;;;5045463;28;19931;-82
2022/04/08 01:04:10;;;;;;;;;;;8.60;99.90;;;;;;5045311;28;19925;-82
2022/04/08 01:06:38;;;;;;;;;;;8.50;99.90;;;;;;5046988;28;19924;-82
2022/04/08 01:09:06;;;;;;;;;;;8.60;99.90;;;;;;5040027;28;23393;-82
2022/04/08 01:11:33;;;;;;;;;;;8.50;99.90;;;;;;5045766;28;19994;-82
2022/04/08 01:14:08;;;;;;;;;;;8.50;99.90;;;;;;5028836;28;20346;-82
2022/04/08 01:16:35;;;;;;;;;;;8.50;99.90;;;;;;5044703;28;19929;-82
2022/04/08 01:19:02;;;;;;;;;;;8.50;99.90;;;;;;5046793;28;19924;-79
2022/04/08 01:21:29;;;;;;;;;;;8.50;99.90;;;;;;5025925;28;19932;-80
2022/04/08 01:23:57;;;;;;;;;;;8.40;99.90;;;;;;5028252;28;19995;-80
2022/04/08 01:26:25;;;;;;;;;;;8.40;99.90;;;;;;5041181;28;19953;-80
2022/04/08 01:28:52;;;;;;;;;;;8.40;99.90;;;;;;5039600;28;20203;-80
2022/04/08 01:31:19;;;;;;;;;;;8.40;99.90;;;;;;5032805;28;19960;-80
2022/04/08 01:33:46;;;;;;;;;;;8.40;99.90;;;;;;5048144;28;21239;-78
2022/04/08 01:36:13;;;;;;;;;;;8.40;99.90;;;;;;5038723;28;20020;-79
2022/04/08 01:38:39;;;;;;;;;;;8.30;99.90;;;;;;5046057;28;19936;-79
2022/04/08 01:41:06;;;;;;;;;;;8.40;99.90;;;;;;5029309;28;20041;-82
2022/04/08 01:43:37;;;;;;;;;;;8.30;99.90;;;;;;5040139;28;19971;-81
2022/04/08 01:46:04;;;;;;;;;;;8.30;99.90;;;;;;5039387;28;20889;-82
2022/04/08 01:48:31;;;;;;;;;;;8.30;99.90;;;;;;5048295;28;19925;-82
2022/04/08 01:50:57;;;;;;;;;;;8.30;99.90;;;;;;5043706;28;19933;-82
2022/04/08 01:53:24;;;;;;;;;;;8.30;99.90;;;;;;5030390;28;20325;-82
2022/04/08 01:55:51;;;;;;;;;;;8.30;99.90;;;;;;5047857;28;19929;-82
2022/04/08 01:58:18;;;;;;;;;;;8.30;99.90;;;;;;5044152;28;20360;-82
2022/04/08 02:00:47;;;;;;;;;;;8.30;99.90;;;;;;5043815;28;20271;-81
2022/04/08 02:03:15;;;;;;;;;;;8.20;99.90;;;;;;5042132;28;19925;-82
2022/04/08 02:05:42;;;;;;;;;;;8.20;99.90;;;;;;5044978;28;20388;-82
2022/04/08 02:08:09;;;;;;;;;;;8.20;99.90;;;;;;5035658;28;20354;-82
2022/04/08 02:10:36;;;;;;;;;;;8.20;99.90;;;;;;5044427;28;19931;-82
2022/04/08 02:13:03;;;;;;;;;;;8.20;99.90;;;;;;5047088;28;19972;-79
2022/04/08 02:15:32;;;;;;;;;;;8.20;99.90;;;;;;5046188;28;20387;-79
2022/04/08 02:18:01;;;;;;;;;;;8.20;99.90;;;;;;5043764;28;19924;-79
2022/04/08 02:20:29;;;;;;;;;;;8.20;99.90;;;;;;5043955;28;19936;-79
2022/04/08 02:22:56;;;;;;;;;;;8.20;99.90;;;;;;5046968;28;19925;-80
2022/04/08 02:25:23;;;;;;;;;;;8.20;99.90;;;;;;5045819;28;19925;-79
2022/04/08 02:27:50;;;;;;;;;;;8.20;99.90;;;;;;5052085;28;20411;-80
2022/04/08 02:30:17;;;;;;;;;;;8.20;99.90;;;;;;5045381;28;19931;-79
2022/04/08 02:32:46;;;;;;;;;;;8.10;99.90;;;;;;5043719;28;19932;-79
2022/04/08 02:35:14;;;;;;;;;;;8.10;99.90;;;;;;5036352;28;19986;-80
2022/04/08 02:37:41;;;;;;;;;;;8.10;99.90;;;;;;5028247;28;19929;-80
2022/04/08 02:40:09;;;;;;;;;;;8.10;99.90;;;;;;5042798;28;20417;-79
2022/04/08 02:42:36;;;;;;;;;;;8.10;99.90;;;;;;5042664;28;19925;-82
2022/04/08 02:45:03;;;;;;;;;;;8.10;99.90;;;;;;5034464;28;21063;-82
2022/04/08 02:47:30;;;;;;;;;;;8.10;99.90;;;;;;5039854;28;19932;-82
2022/04/08 02:49:57;;;;;;;;;;;8.10;99.90;;;;;;5040066;28;20020;-82
2022/04/08 02:52:25;;;;;;;;;;;8.10;99.90;;;;;;5043102;28;19932;-82
2022/04/08 02:54:52;;;;;;;;;;;8.10;99.90;;;;;;5039905;28;19924;-81
2022/04/08 02:57:19;;;;;;;;;;;8.10;99.90;;;;;;5039418;28;19925;-82
2022/04/08 02:59:46;;;;;;;;;;;8.10;99.90;;;;;;5049085;28;19925;-82
2022/04/08 03:02:13;;;;;;;;;;;8.10;99.90;;;;;;5047142;28;19925;-82
2022/04/08 03:04:39;;;;;;;;;;;8.10;99.90;;;;;;5045261;28;20004;-82
2022/04/08 03:07:06;;;;;;;;;;;8.00;99.90;;;;;;5027781;28;22458;-82
2022/04/08 03:09:36;;;;;;;;;;;8.00;99.90;;;;;;5035957;28;20373;-81
2022/04/08 03:12:03;;;;;;;;;;;8.00;99.90;;;;;;5041423;28;20056;-82
2022/04/08 03:14:31;;;;;;;;;;;7.90;99.90;;;;;;5044450;28;20007;-82
2022/04/08 03:16:57;;;;;;;;;;;8.00;99.90;;;;;;5035603;28;19925;-82
2022/04/08 03:19:24;;;;;;;;;;;7.90;99.90;;;;;;5033625;28;19933;-82
2022/04/08 03:21:51;;;;;;;;;;;7.90;99.90;;;;;;5038334;28;19933;-82
2022/04/08 03:24:18;;;;;;;;;;;7.90;99.90;;;;;;5042148;28;20011;-82
2022/04/08 03:26:49;;;;;;;;;;;7.90;99.90;;;;;;5037884;28;19925;-82
2022/04/08 03:29:16;;;;;;;;;;;7.90;99.90;;;;;;5040838;28;19925;-82
2022/04/08 03:31:43;;;;;;;;;;;7.90;99.90;;;;;;5041490;28;19948;-81
2022/04/08 03:34:10;;;;;;;;;;;7.80;99.90;;;;;;5030528;28;19925;-82
2022/04/08 03:36:37;;;;;;;;;;;7.80;99.90;;;;;;5029414;28;20330;-82
2022/04/08 03:39:03;;;;;;;;;;;7.80;99.90;;;;;;5038410;28;20395;-82
2022/04/08 03:41:30;;;;;;;;;;;7.80;99.90;;;;;;5035088;28;19964;-81
2022/04/08 03:43:58;;;;;;;;;;;7.80;99.90;;;;;;5035942;28;20367;-82
2022/04/08 03:46:27;;;;;;;;;;;7.80;99.90;;;;;;5033383;28;19925;-80
2022/04/08 03:48:54;;;;;;;;;;;7.80;99.90;;;;;;5040146;28;19933;-79
2022/04/08 03:51:21;;;;;;;;;;;7.80;99.90;;;;;;5023519;28;19929;-80
2022/04/08 03:53:48;;;;;;;;;;;7.80;99.90;;;;;;5038395;28;19925;-79
2022/04/08 03:56:14;;;;;;;;;;;7.80;99.90;;;;;;5044469;28;19929;-80
2022/04/08 03:58:41;;;;;;;;;;;7.70;99.90;;;;;;5051353;28;20426;-80
2022/04/08 04:01:10;;;;;;;;;;;7.60;99.90;;;;;;5053173;28;20020;-80
2022/04/08 04:03:37;;;;;;;;;;;7.60;99.90;;;;;;5051414;28;19925;-80
2022/04/08 04:06:04;;;;;;;;;;;7.60;99.90;;;;;;5064042;28;19939;-80
2022/04/08 04:08:30;;;;;;;;;;;7.70;99.90;;;;;;5061127;28;19933;-80
2022/04/08 04:10:57;;;;;;;;;;;7.70;99.90;;;;;;5058148;28;19924;-80
2022/04/08 04:13:24;;;;;;;;;;;7.70;99.90;;;;;;5061120;28;19939;-80
2022/04/08 04:15:51;;;;;;;;;;;7.70;99.90;;;;;;5068303;28;19931;-80
2022/04/08 04:18:19;;;;;;;;;;;7.70;99.90;;;;;;5044694;28;20482;-80
2022/04/08 04:20:46;;;;;;;;;;;7.70;99.90;;;;;;5058048;28;19939;-79
2022/04/08 04:23:13;;;;;;;;;;;7.70;99.90;;;;;;5064924;28;19932;-80
2022/04/08 04:25:40;;;;;;;;;;;7.60;99.90;;;;;;5053966;28;19924;-80
2022/04/08 04:28:07;;;;;;;;;;;7.60;99.90;;;;;;5058085;28;19925;-81
2022/04/08 04:30:38;;;;;;;;;;;7.60;99.90;;;;;;5047244;28;19929;-81
2022/04/08 04:33:07;;;;;;;;;;;7.70;99.90;;;;;;5077530;28;19925;-81
2022/04/08 04:35:36;;;;;;;;;;;7.70;99.90;;;;;;5194542;22;19924;-79
2022/04/08 04:40:36;;;;;;;;;;;7.60;99.90;;;;;;5064177;28;19931;-80
2022/04/08 04:43:05;;;;;;;;;;;7.70;99.90;;;;;;5055527;28;20616;-80
2022/04/08 04:45:34;;;;;;;;;;;7.60;99.90;;;;;;5065286;28;19924;-80
2022/04/08 04:48:01;;;;;;;;;;;7.60;99.90;;;;;;5058587;28;19963;-80
2022/04/08 04:50:28;;;;;;;;;;;7.60;99.90;;;;;;5038961;28;19929;-80
2022/04/08 04:52:57;;;;;;;;;;;7.60;99.90;;;;;;5358528;22;19947;-80
2022/04/08 04:55:24;;;;;;;;;;;7.60;99.90;;;;;;5055511;23;19929;-82
2022/04/08 04:57:53;;;;;;;;;;;7.60;99.90;;;;;;5034186;28;19925;-81
2022/04/08 05:02:49;;;;;;;;;;;7.60;99.90;;;;;;5003825;28;19957;-81
2022/04/08 05:05:19;;;;;;;;;;;7.60;99.90;;;;;;5003241;28;19925;-81
2022/04/08 05:07:46;;;;;;;;;;;7.50;99.90;;;;;;5000986;28;19969;-81
2022/04/08 05:10:15;;;;;;;;;;;7.50;99.90;;;;;;5002773;28;19950;-81
2022/04/08 05:12:42;;;;;;;;;;;7.50;99.90;;;;;;5004401;28;19933;-82
2022/04/08 05:15:11;;;;;;;;;;;7.50;99.90;;;;;;4999918;28;19926;-81
2022/04/08 05:17:39;;;;;;;;;;;7.50;99.90;;;;;;4987957;28;19921;-81
2022/04/08 05:20:07;;;;;;;;;;;7.50;99.90;;;;;;5002256;28;20388;-81
2022/04/08 05:22:34;;;;;;;;;;;7.50;99.90;;;;;;4991440;28;19949;-81
2022/04/08 05:25:04;;;;;;;;;;;7.50;99.90;;;;;;4991837;28;20359;-81
2022/04/08 05:27:37;;;;;;;;;;;7.50;99.90;;;;;;4999991;28;19937;-82
2022/04/08 05:30:05;;;;;;;;;;;7.50;99.90;;;;;;4993428;28;19956;-81
2022/04/08 05:32:33;;;;;;;;;;;7.50;99.90;;;;;;4992384;28;20017;-81
2022/04/08 05:35:00;;;;;;;;;;;7.50;99.90;;;;;;4986295;28;19934;-81
2022/04/08 05:37:28;;;;;;;;;;;7.50;99.90;;;;;;4991156;28;19932;-82
2022/04/08 05:39:55;;;;;;;;;;;7.50;99.90;;;;;;4999137;28;20269;-81
2022/04/08 05:45:08;;;;;;;;;;;7.40;99.90;;;;;;5093826;23;19933;-82
2022/04/08 05:47:35;;;;;;;;;;;7.50;99.90;;;;;;5053516;28;19932;-81
2022/04/08 05:50:03;;;;;;;;;;;7.50;99.90;;;;;;5044264;28;19960;-80
2022/04/08 05:52:30;;;;;;;;;;;7.50;99.90;;;;;;5042619;28;19925;-80
2022/04/08 05:54:57;;;;;;;;;;;7.40;99.90;;;;;;5041464;28;19929;-81
2022/04/08 05:57:24;;;;;;;;;;;7.40;99.90;;;;;;5031958;28;19929;-81
2022/04/08 05:59:51;;;;;;;;;;;7.50;99.90;;;;;;5044583;28;20391;-80
2022/04/08 06:02:20;;;;;;;;;;;7.40;99.90;;;;;;5037867;28;19925;-81
2022/04/08 06:04:47;;;;;;;;;;;7.50;99.90;;;;;;5043578;28;19960;-81
2022/04/08 06:07:14;;;;;;;;;;;7.50;99.90;;;;;;5026372;28;20318;-81
2022/04/08 06:09:41;;;;;;;;;;;7.40;99.90;;;;;;5032051;28;20395;-80
2022/04/08 06:12:09;;;;;;;;;;;7.40;99.90;;;;;;5022564;28;19933;-80
2022/04/08 06:14:37;;;;;;;;;;;7.40;99.90;;;;;;5021778;28;19944;-80
2022/04/08 06:17:04;;;;;;;;;;;7.40;99.90;;;;;;5045864;28;19958;-81
2022/04/08 06:19:32;;;;;;;;;;;7.40;99.90;;;;;;5040279;28;20418;-81
2022/04/08 06:21:59;;;;;;;;;;;7.40;99.90;;;;;;5040775;28;19945;-81
2022/04/08 06:24:26;;;;;;;;;;;7.40;99.90;;;;;;5047527;28;19932;-81
2022/04/08 06:26:54;;;;;;;;;;;7.40;99.90;;;;;;5044762;28;19932;-81
2022/04/08 06:29:21;;;;;;;;;;;7.40;99.90;;;;;;5045668;28;20409;-80
2022/04/08 06:31:48;;;;;;;;;;;7.30;99.90;;;;;;5047248;28;19933;-81
2022/04/08 06:34:15;;;;;;;;;;;7.40;99.90;;;;;;5043716;28;20394;-80
2022/04/08 06:36:43;;;;;;;;;;;7.30;99.90;;;;;;5037994;28;20015;-80
2022/04/08 06:39:10;;;;;;;;;;;7.30;99.90;;;;;;5046604;28;19932;-81
2022/04/08 06:41:37;;;;;;;;;;;7.30;99.90;;;;;;5037458;28;19940;-80
2022/04/08 06:44:05;;;;;;;;;;;7.30;99.90;;;;;;5040123;28;19939;-80
2022/04/08 06:46:32;;;;;;;;;;;7.30;99.90;;;;;;5039612;28;19994;-81
2022/04/08 06:49:02;;;;;;;;;;;7.30;99.90;;;;;;5045563;28;19933;-81
2022/04/08 06:51:30;;;;;;;;;;;7.30;99.90;;;;;;5042706;28;19925;-81
2022/04/08 06:54:00;;;;;;;;;;;7.30;99.90;;;;;;5044618;28;19929;-81
2022/04/08 06:56:28;;;;;;;;;;;7.30;99.90;;;;;;5040813;28;19929;-81
2022/04/08 06:58:55;;;;;;;;;;;7.20;99.90;;;;;;5048453;28;19933;-81
2022/04/08 07:01:22;;;;;;;;;;;7.20;99.90;;;;;;5036422;28;19967;-81
2022/04/08 07:03:50;;;;;;;;;;;7.20;99.90;;;;;;5040959;28;19933;-81
2022/04/08 07:06:16;;;;;;;;;;;7.30;99.90;;;;;;5049283;28;19932;-81
2022/04/08 07:08:43;;;;;;;;;;;7.30;99.90;;;;;;5041138;28;19940;-81
2022/04/08 07:11:12;;;;;;;;;;;7.20;99.90;;;;;;5044749;28;20046;-80
2022/04/08 07:13:41;;;;;;;;;;;7.20;99.90;;;;;;5039612;28;19936;-81
2022/04/08 07:16:08;;;;;;;;;;;7.20;99.90;;;;;;5042955;28;20015;-81
2022/04/08 07:18:35;;;;;;;;;;;7.20;99.90;;;;;;5045733;28;19934;-81
2022/04/08 07:21:02;;;;;;;;;;;7.20;99.90;;;;;;5042808;28;19981;-80
2022/04/08 07:23:29;;;;;;;;;;;7.20;99.90;;;;;;5042012;28;19924;-81
2022/04/08 07:25:56;;;;;;;;;;;7.20;99.90;;;;;;5037166;28;19929;-80
2022/04/08 07:28:25;;;;;;;;;;;7.20;99.90;;;;;;5043842;28;19971;-81
2022/04/08 07:30:52;;;;;;;;;;;7.20;99.90;;;;;;5044379;28;20291;-81
2022/04/08 07:33:19;;;;;;;;;;;7.20;99.90;;;;;;5047898;28;22429;-80
2022/04/08 07:35:46;;;;;;;;;;;7.20;99.90;;;;;;5060964;28;19929;-80
2022/04/08 07:43:32;;;;;;;;;;;7.30;99.90;;;;;;5896803;22;20058;-80
2022/04/08 07:45:59;;;;;;;;;;;7.30;99.90;;;;;;5050327;28;20007;-80
2022/04/08 07:48:32;;;;;;;;;;;7.20;99.90;;;;;;5045637;28;20310;-80
2022/04/08 07:51:20;;;;;;;;;;;7.30;99.90;;;;;;5036668;28;19929;-80
2022/04/08 07:53:55;;;;;;;;;;;7.30;99.90;;;;;;5045155;28;20306;-80
2022/04/08 08:01:57;;;;;;;;;;;7.20;99.90;;;;;;5051701;28;20271;-80
2022/04/08 08:04:28;;;;;;;;;;;7.20;99.90;;;;;;5046726;28;19925;-80
2022/04/08 08:06:58;;;;;;;;;;;7.30;99.90;;;;;;5038903;28;20330;-80
2022/04/08 08:15:48;;;;;;;;;;;7.30;99.90;;;;;;5051505;28;20023;-80
2022/04/08 08:21:27;;;;;;;;;;;7.30;99.90;;;;;;5939157;22;20313;-80
2022/04/08 08:23:56;;;;;;;;;;;7.20;99.90;;;;;;5043790;28;19925;-80
2022/04/08 08:26:24;;;;;;;;;;;7.30;99.90;;;;;;5050050;28;19931;-81
2022/04/08 08:28:54;;;;;;;;;;;7.30;99.90;;;;;;5016497;28;19933;-80
2022/04/08 08:31:23;;;;;;;;;;;7.30;99.90;;;;;;5021061;28;20409;-80
2022/04/08 08:33:50;;;;;;;;;;;7.30;99.90;;;;;;5031504;28;19926;-80
2022/04/08 08:36:17;;;;;;;;;;;7.30;99.90;;;;;;5022243;28;19976;-79
2022/04/08 08:44:22;;;;;;;;;;;7.30;99.90;;;;;;5071756;23;19976;-79
2022/04/08 08:53:41;;;;;;;;;;;7.40;99.90;;;;;;5520183;23;19929;-80
2022/04/08 08:56:10;;;;;;;;;;;7.40;99.90;;;;;;5057498;28;19924;-79
2022/04/08 08:58:37;;;;;;;;;;;7.40;99.90;;;;;;5045099;28;20395;-79
2022/04/08 09:01:06;;;;;;;;;;;7.40;99.90;;;;;;5033855;28;20319;-79
2022/04/08 09:03:34;;;;;;;;;;;7.30;99.90;;;;;;5035776;28;19925;-80
2022/04/08 09:06:09;;;;;;;;;;;7.30;99.90;;;;;;5038481;28;19933;-79
2022/04/08 09:08:36;;;;;;;;;;;7.30;99.90;;;;;;5041699;28;19931;-79
2022/04/08 09:11:06;;;;;;;;;;;7.40;99.90;;;;;;5041430;28;19956;-79
2022/04/08 09:13:43;;;;;;;;;;;7.30;99.90;;;;;;5035155;28;19929;-79
2022/04/08 09:16:11;;;;;;;;;;;7.40;99.90;;;;;;5024712;28;19925;-79
2022/04/08 09:18:41;;;;;;;;;;;7.40;99.90;;;;;;5035613;28;19925;-80
2022/04/08 09:21:11;;;;;;;;;;;7.40;99.90;;;;;;5018112;28;19933;-79
2022/04/08 09:42:15;;;;;;;;;;;7.50;99.90;;;;;;6174754;22;2072796;-80
2022/04/08 09:44:42;;;;;;;;;;;7.40;99.90;;;;;;6285495;22;19942;-80
2022/04/08 09:47:09;;;;;;;;;;;7.40;99.90;;;;;;6278986;22;19969;-80
2022/04/08 09:49:38;;;;;;;;;;;7.50;99.90;;;;;;6255034;23;19923;-80
2022/04/08 09:52:07;;;;;;;;;;;7.50;99.90;;;;;;6253547;23;19946;-80
2022/04/08 09:54:35;;;;;;;;;;;7.50;99.90;;;;;;6255325;22;19924;-79
2022/04/08 09:57:03;;;;;;;;;;;7.50;99.90;;;;;;6252818;23;20340;-80
2022/04/08 09:59:38;;;;;;;;;;;7.50;99.90;;;;;;6254786;23;19965;-79
2022/04/08 10:02:08;;;;;;;;;;;7.50;99.90;;;;;;6253023;23;19926;-80
2022/04/08 10:04:39;;;;;;;;;;;7.50;99.90;;;;;;6254506;23;19973;-79
2022/04/08 10:07:07;;;;;;;;;;;7.50;99.90;;;;;;6254728;22;19919;-80
2022/04/08 10:09:38;;;;;;;;;;;7.50;99.90;;;;;;6253573;23;19920;-80
2022/04/08 10:12:09;;;;;;;;;;;7.60;99.90;;;;;;6255428;23;19920;-79
2022/04/08 10:14:43;;;;;;;;;;;7.60;99.90;;;;;;6253353;23;19920;-80
2022/04/08 10:17:11;;;;;;;;;;;7.60;99.90;;;;;;6254538;23;19994;-80
2022/04/08 10:19:38;;;;;;;;;;;7.60;99.90;;;;;;6254512;23;19919;-79
2022/04/08 10:22:16;;;;;;;;;;;7.60;99.90;;;;;;6253474;23;19923;-79
2022/04/08 10:24:52;;;;;;;;;;;7.60;99.90;;;;;;6278856;23;19903;-80
2022/04/08 10:27:30;;;;;;;;;;;7.60;99.90;;;;;;6280160;23;19942;-81
2022/04/08 10:30:00;;;;;;;;;;;7.70;99.90;;;;;;6263658;22;20383;-79
2022/04/08 10:32:37;;;;;;;;;;;7.60;99.90;;;;;;6254558;23;19961;-79
2022/04/08 10:35:20;;;;;;;;;;;7.70;99.90;;;;;;6253878;22;19919;-80
2022/04/08 10:43:19;;;;;;;;;;;7.70;99.90;;;;;;6144155;22;19921;-80
2022/04/08 10:45:56;;;;;;;;;;;7.70;99.90;;;;;;6150739;23;19921;-80
2022/04/08 10:48:23;;;;;;;;;;;7.70;99.90;;;;;;6151725;22;19925;-79
2022/04/08 10:51:01;;;;;;;;;;;7.80;99.90;;;;;;6151682;23;19943;-79
2022/04/08 10:53:32;;;;;;;;;;;7.70;99.90;;;;;;6151174;23;19927;-81
2022/04/08 10:56:07;;;;;;;;;;;7.70;99.90;;;;;;6150993;23;19921;-80
2022/04/08 10:58:35;;;;;;;;;;;7.80;99.90;;;;;;6150161;23;19921;-80
2022/04/08 11:01:17;;;;;;;;;;;7.80;99.90;;;;;;6150978;23;19925;-79
2022/04/08 11:03:47;;;;;;;;;;;7.80;99.90;;;;;;6149661;23;19943;-79
2022/04/08 11:06:15;;;;;;;;;;;7.80;99.90;;;;;;6152791;23;19950;-80
2022/04/08 11:08:43;;;;;;;;;;;7.80;99.90;;;;;;6150806;23;19947;-79
2022/04/08 11:11:11;;;;;;;;;;;7.80;99.90;;;;;;6151820;23;19928;-80
2022/04/08 11:13:40;;;;;;;;;;;7.80;99.90;;;;;;6151720;23;19927;-79
2022/04/08 11:16:08;;;;;;;;;;;7.80;99.90;;;;;;6152091;23;19920;-79
2022/04/08 11:18:36;;;;;;;;;;;7.80;99.90;;;;;;6150217;23;19925;-79
2022/04/08 11:21:03;;;;;;;;;;;7.80;99.90;;;;;;6152257;23;19928;-80
2022/04/08 11:23:32;;;;;;;;;;;7.80;99.90;;;;;;6152508;23;19996;-79
2022/04/08 11:25:59;;;;;;;;;;;7.80;99.90;;;;;;6152144;23;19921;-80
2022/04/08 11:28:31;;;;;;;;;;;7.90;99.90;;;;;;6151917;23;19971;-80
2022/04/08 11:30:58;;;;;;;;;;;7.90;99.90;;;;;;6152202;23;19924;-79
2022/04/08 11:33:25;;;;;;;;;;;7.90;99.90;;;;;;6151750;23;19925;-80
2022/04/08 11:36:03;;;;;;;;;;;7.90;99.90;;;;;;6151846;23;19924;-80
2022/04/08 11:38:35;;;;;;;;;;;7.90;99.90;;;;;;6151391;23;19928;-79
2022/04/08 11:41:03;;;;;;;;;;;7.90;99.90;;;;;;6151699;23;19921;-79
2022/04/08 11:43:31;;;;;;;;;;;7.90;99.90;;;;;;6151624;23;19987;-80
2022/04/08 11:45:58;;;;;;;;;;;7.90;99.90;;;;;;6151611;23;19932;-79
2022/04/08 11:48:25;;;;;;;;;;;7.90;99.90;;;;;;6152918;23;19920;-80
2022/04/08 11:50:53;;;;;;;;;;;8.00;99.90;;;;;;6151796;23;20306;-80
2022/04/08 11:53:22;;;;;;;;;;;8.00;99.90;;;;;;6151313;23;19970;-80
2022/04/08 11:55:54;;;;;;;;;;;8.00;99.90;;;;;;6149771;23;19971;-80
2022/04/08 11:58:21;;;;;;;;;;;8.00;99.90;;;;;;6151030;23;19924;-79
2022/04/08 12:00:48;;;;;;;;;;;8.10;99.90;;;;;;6150049;23;19927;-79
2022/04/08 12:03:23;;;;;;;;;;;8.10;99.90;;;;;;6151612;23;19927;-79
2022/04/08 12:06:12;;;;;;;;;;;8.10;99.90;;;;;;6151596;23;19966;-80
2022/04/08 12:14:42;;;;;;;;;;;8.20;99.90;;;;;;6150654;23;19943;-79
2022/04/08 12:17:39;;;;;;;;;;;8.20;99.90;;;;;;6150233;23;20308;-79
2022/04/08 12:22:59;;;;;;;;;;;8.40;99.90;;;;;;6105829;23;19927;-80
2022/04/08 12:38:56;;;;;;;;;;;8.70;99.90;;;;;;6015243;23;19941;-80
2022/04/08 12:57:37;;;;;;;;;;;9.10;99.90;;;;;;6151536;23;20360;-80
2022/04/08 13:01:13;;;;;;;;;;;9.20;99.90;;;;;;6150908;23;19928;-80
2022/04/08 13:16:35;;;;;;;;;;;9.50;99.90;;;;;;6108363;23;19927;-80
2022/04/08 13:20:06;;;;;;;;;;;9.60;99.90;;;;;;6150263;23;19978;-80
2022/04/08 13:25:49;;;;;;;;;;;9.60;99.90;;;;;;6150621;23;19967;-80
2022/04/08 13:28:17;;;;;;;;;;;9.70;99.90;;;;;;6150598;23;19978;-80
2022/04/08 13:30:47;;;;;;;;;;;9.80;99.90;;;;;;6150638;23;19974;-80
2022/04/08 13:33:14;;;;;;;;;;;9.80;99.90;;;;;;6149993;23;20003;-80
2022/04/08 13:35:43;;;;;;;;;;;9.80;99.90;;;;;;6147528;23;19921;-81
2022/04/08 13:38:10;;;;;;;;;;;9.90;99.90;;;;;;6147549;23;19943;-79
2022/04/08 13:43:26;;;;;;;;;;;;;;;;;;6150293;23;19920;-81
2022/04/08 13:45:54;;;;;;;;;;;10.00;99.90;;;;;;6149189;23;19925;-81
2022/04/08 13:48:21;;;;;;;;;;;10.10;99.90;;;;;;6149680;23;19921;-80
2022/04/08 13:50:51;;;;;;;;;;;10.10;99.90;;;;;;6147485;23;20349;-80
2022/04/08 13:53:18;;;;;;;;;;;10.20;99.90;;;;;;6149467;23;19925;-80
2022/04/08 13:55:47;;;;;;;;;;;10.20;99.90;;;;;;6149949;23;19974;-80
2022/04/08 13:58:14;;;;;;;;;;;10.20;99.90;;;;;;6148080;23;19931;-80
2022/04/08 14:00:44;;;;;;;;;;;10.20;99.90;;;;;;6148852;23;20341;-78
2022/04/08 14:03:13;;;;;;;;;;;10.30;99.90;;;;;;6146666;22;19919;-79
2022/04/08 14:05:40;;;;;;;;;;;10.30;99.90;;;;;;6118623;23;19966;-80
2022/04/08 14:08:11;;;;;;;;;;;10.30;99.90;;;;;;6122175;23;19921;-80
2022/04/08 14:10:39;;;;;;;;;;;10.30;99.90;;;;;;6120921;23;19921;-80
2022/04/08 14:13:07;;;;;;;;;;;10.30;99.90;;;;;;6122736;23;20345;-80
2022/04/08 14:15:34;;;;;;;;;;;10.30;99.90;;;;;;6123637;23;20372;-80
2022/04/08 14:18:01;;;;;;;;;;;10.30;99.90;;;;;;6123801;23;20294;-80
2022/04/08 14:20:29;;;;;;;;;;;10.40;99.90;;;;;;6124144;23;19921;-82
2022/04/08 14:22:57;;;;;;;;;;;10.30;99.90;;;;;;6130676;23;20444;-80
2022/04/08 14:25:26;;;;;;;;;;;10.30;99.90;;;;;;6128438;23;19932;-82
2022/04/08 14:27:53;;;;;;;;;;;10.30;99.90;;;;;;6124558;23;19929;-81
2022/04/08 14:30:20;;;;;;;;;;;10.30;99.90;;;;;;6124443;23;19925;-82
2022/04/08 14:32:47;;;;;;;;;;;10.30;99.90;;;;;;6124213;23;19921;-82
2022/04/08 14:35:14;;;;;;;;;;;10.30;99.90;;;;;;6127513;23;19929;-82
2022/04/08 14:37:41;;;;;;;;;;;10.30;99.90;;;;;;6127426;23;19978;-82
2022/04/08 14:40:11;;;;;;;;;;;10.30;99.90;;;;;;6128508;23;19999;-82
2022/04/08 14:42:39;;;;;;;;;;;10.30;99.90;;;;;;6126380;23;19929;-82
2022/04/08 14:45:08;;;;;;;;;;;10.20;99.90;;;;;;6122371;23;20003;-81
2022/04/08 14:47:35;;;;;;;;;;;10.20;99.90;;;;;;6118872;23;19944;-81
2022/04/08 14:50:02;;;;;;;;;;;10.20;99.90;;;;;;6116734;23;19956;-82
2022/04/08 14:52:29;;;;;;;;;;;10.20;99.90;;;;;;6117814;23;19921;-81
2022/04/08 14:54:56;;;;;;;;;;;10.20;99.90;;;;;;6119705;23;20000;-81
2022/04/08 14:57:23;;;;;;;;;;;10.20;99.90;;;;;;6116781;23;19929;-81
2022/04/08 14:59:51;;;;;;;;;;;10.10;99.90;;;;;;6115710;23;20353;-81
2022/04/08 15:02:18;;;;;;;;;;;10.10;99.90;;;;;;6118830;23;20339;-81
2022/04/08 15:04:45;;;;;;;;;;;10.10;99.90;;;;;;6116723;23;19925;-82
2022/04/08 15:07:12;;;;;;;;;;;10.10;99.90;;;;;;6114226;23;19959;-82
2022/04/08 15:09:39;;;;;;;;;;;10.10;99.90;;;;;;6116612;23;19933;-81
2022/04/08 15:12:08;;;;;;;;;;;10.10;99.90;;;;;;6116662;23;20008;-82
2022/04/08 15:14:35;;;;;;;;;;;10.10;99.90;;;;;;6117145;23;20023;-81
2022/04/08 15:17:04;;;;;;;;;;;10.10;99.90;;;;;;6114063;23;19927;-82
2022/04/08 15:19:31;;;;;;;;;;;10.10;99.90;;;;;;6120201;23;19932;-81
2022/04/08 15:21:58;;;;;;;;;;;10.10;99.90;;;;;;6119347;23;20004;-81
2022/04/08 15:24:26;;;;;;;;;;;10.10;99.90;;;;;;6116234;23;19965;-81
2022/04/08 15:26:52;;;;;;;;;;;10.10;99.90;;;;;;6118393;23;19928;-81
2022/04/08 15:29:19;;;;;;;;;;;10.10;99.90;;;;;;6119573;23;19924;-80
2022/04/08 15:31:47;;;;;;;;;;;10.10;99.90;;;;;;6120052;23;20317;-82
2022/04/08 15:34:15;;;;;;;;;;;10.10;99.90;;;;;;6117509;23;20677;-82
2022/04/08 15:36:42;;;;;;;;;;;10.10;99.90;;;;;;6117544;23;19927;-81
2022/04/08 15:39:09;;;;;;;;;;;10.10;99.90;;;;;;6119148;23;19921;-82
2022/04/08 15:41:37;;;;;;;;;;;10.10;99.90;;;;;;6119531;23;20012;-82
2022/04/08 15:44:04;;;;;;;;;;;10.10;99.90;;;;;;6118880;23;20019;-82
2022/04/08 15:46:31;;;;;;;;;;;10.10;99.90;;;;;;6121532;23;19921;-82
2022/04/08 15:48:59;;;;;;;;;;;10.10;99.90;;;;;;6123188;23;19995;-82
2022/04/08 15:51:27;;;;;;;;;;;10.10;99.90;;;;;;6118389;23;19925;-81
2022/04/08 15:53:54;;;;;;;;;;;10.20;99.90;;;;;;6119649;23;19929;-82
2022/04/08 15:56:21;;;;;;;;;;;10.20;99.90;;;;;;6121141;23;19921;-79
2022/04/08 15:58:48;;;;;;;;;;;10.20;99.90;;;;;;6119202;23;19921;-81
2022/04/08 16:01:15;;;;;;;;;;;10.20;99.90;;;;;;6115545;23;19947;-82
2022/04/08 16:03:42;;;;;;;;;;;10.20;99.90;;;;;;6119590;23;19925;-82
2022/04/08 16:06:09;;;;;;;;;;;10.20;99.90;;;;;;6119550;23;19948;-81
2022/04/08 16:08:38;;;;;;;;;;;10.30;99.90;;;;;;6116713;23;19925;-82
2022/04/08 16:11:06;;;;;;;;;;;10.30;99.90;;;;;;6119369;23;19925;-81
2022/04/08 16:13:33;;;;;;;;;;;10.30;99.90;;;;;;6121927;23;19928;-79
2022/04/08 16:16:00;;;;;;;;;;;10.30;99.90;;;;;;6120129;23;20357;-82
2022/04/08 16:18:26;;;;;;;;;;;10.30;99.90;;;;;;6121363;23;19920;-82
2022/04/08 16:20:53;;;;;;;;;;;10.30;99.90;;;;;;6116001;23;19956;-82
2022/04/08 16:23:22;;;;;;;;;;;10.30;99.90;;;;;;6114351;23;19932;-81
2022/04/08 16:25:50;;;;;;;;;;;10.40;99.90;;;;;;6117579;23;19921;-81
2022/04/08 16:28:18;;;;;;;;;;;10.40;99.90;;;;;;6113191;23;19997;-82
2022/04/08 16:30:45;;;;;;;;;;;10.40;99.90;;;;;;6118820;23;19951;-82
2022/04/08 16:33:12;;;;;;;;;;;10.50;99.90;;;;;;6117827;23;20381;-81
2022/04/08 16:35:39;;;;;;;;;;;10.50;99.90;;;;;;6114600;23;20420;-79
2022/04/08 16:38:06;;;;;;;;;;;10.50;99.90;;;;;;6114318;23;19920;-79
2022/04/08 16:40:33;;;;;;;;;;;10.50;99.90;;;;;;6115661;23;19995;-81
2022/04/08 16:43:02;;;;;;;;;;;10.50;99.90;;;;;;6116000;23;19953;-81
2022/04/08 16:45:29;;;;;;;;;;;10.50;99.90;;;;;;6118727;23;19942;-82
2022/04/08 16:47:56;;;;;;;;;;;10.50;99.90;;;;;;6113464;23;20007;-81
2022/04/08 16:50:24;;;;;;;;;;;10.50;99.90;;;;;;6121499;23;19921;-82
2022/04/08 16:52:51;;;;;;;;;;;10.50;99.90;;;;;;6110599;23;19971;-82
2022/04/08 16:55:18;;;;;;;;;;;10.60;99.90;;;;;;6123048;23;20360;-82
2022/04/08 16:57:45;;;;;;;;;;;10.60;99.90;;;;;;6127292;23;20293;-80
2022/04/08 17:00:14;;;;;;;;;;;10.60;99.90;;;;;;6117361;23;19978;-80